Time;durP1;ratioP1;P1;durP2;ratioP2;P2;SDS_P1;SDS_P2;PMS_P1;PMS_P2;Temp;Humidity;BMP_temperature;BMP_pressure;BME280_temperature;BME280_humidity;BME280_pressure;Samples;Min_cycle;Max_cycle;Signal;HPM_P1;HPM_P2
2020/12/19 00:00:58;;;;;;;31.58;9.32;;;;;;;1.59;80.92;94450.31;4965259;28;20039;-59
2020/12/19 00:03:23;;;;;;;40.90;10.68;;;;;;;1.57;81.50;94460.91;4964981;28;20030;-59
2020/12/19 00:05:48;;;;;;;31.73;9.10;;;;;;;1.64;80.55;94455.88;4964904;28;20109;-59
2020/12/19 00:08:14;;;;;;;92.30;10.40;;;;;;;1.59;80.44;94442.16;4963843;28;20034;-59
2020/12/19 00:10:39;;;;;;;67.78;16.20;;;;;;;1.65;80.40;94457.38;4965504;28;20042;-59
2020/12/19 00:13:05;;;;;;;31.58;10.15;;;;;;;1.67;80.27;94460.38;4965719;28;20054;-59
2020/12/19 00:15:30;;;;;;;38.95;12.05;;;;;;;1.72;80.39;94461.69;4965226;28;20403;-59
2020/12/19 00:17:55;;;;;;;41.33;8.55;;;;;;;1.41;79.84;94446.53;4964705;28;20030;-59
2020/12/19 00:20:21;;;;;;;98.50;10.18;;;;;;;1.32;80.88;94470.34;4964741;28;20165;-60
2020/12/19 00:22:47;;;;;;;33.58;9.68;;;;;;;1.40;80.63;94466.03;4964281;28;20039;-59
2020/12/19 00:25:12;;;;;;;33.05;9.65;;;;;;;1.47;80.91;94469.13;4964834;28;20027;-59
2020/12/19 00:27:38;;;;;;;40.55;9.68;;;;;;;1.58;81.53;94476.78;4965036;28;20464;-59
2020/12/19 00:30:05;;;;;;;42.97;11.85;;;;;;;1.60;81.73;94466.19;4964321;28;20042;-60
2020/12/19 00:32:31;;;;;;;63.35;10.55;;;;;;;1.48;80.21;94456.28;4964813;28;20042;-59
2020/12/19 00:34:56;;;;;;;72.85;12.02;;;;;;;1.24;80.00;94431.09;4965110;28;20574;-59
2020/12/19 00:37:23;;;;;;;70.30;12.40;;;;;;;1.48;79.42;94470.66;4964616;28;20073;-59
2020/12/19 00:39:48;;;;;;;76.00;12.82;;;;;;;1.37;79.58;94462.28;4965185;28;20045;-60
2020/12/19 00:42:13;;;;;;;40.47;13.40;;;;;;;1.27;79.71;94477.16;4964501;28;20030;-59
2020/12/19 00:44:39;;;;;;;68.72;16.05;;;;;;;1.14;79.76;94463.03;4965522;28;20404;-60
2020/12/19 00:47:04;;;;;;;82.43;17.15;;;;;;;1.22;79.96;94475.06;4965179;28;20037;-60
2020/12/19 00:49:29;;;;;;;39.60;12.00;;;;;;;1.14;80.77;94473.94;4964861;28;20047;-60
2020/12/19 00:51:55;;;;;;;26.83;8.25;;;;;;;1.23;80.67;94475.84;4964056;28;20058;-59
2020/12/19 00:54:20;;;;;;;36.72;10.85;;;;;;;1.04;81.27;94479.88;4965019;28;20474;-59
2020/12/19 00:56:46;;;;;;;32.88;9.35;;;;;;;1.02;81.85;94468.72;4964381;28;20031;-59
2020/12/19 00:59:11;;;;;;;42.38;10.68;;;;;;;1.07;82.00;94471.53;4964795;28;20471;-60
2020/12/19 01:01:37;;;;;;;26.58;9.43;;;;;;;1.19;81.52;94473.28;4965057;28;20037;-59
2020/12/19 01:04:02;;;;;;;57.95;11.13;;;;;;;1.30;80.64;94470.06;4965507;28;20487;-60
2020/12/19 01:06:28;;;;;;;54.80;9.52;;;;;;;1.23;80.87;94463.00;4964146;28;20102;-59
2020/12/19 01:08:58;;;;;;;53.92;10.57;;;;;;;1.18;81.09;94462.88;4964917;28;20065;-59
2020/12/19 01:11:25;;;;;;;28.38;10.77;;;;;;;1.07;81.44;94455.22;4964460;28;20039;-59
2020/12/19 01:13:51;;;;;;;51.90;10.13;;;;;;;1.21;81.04;94464.66;4965467;28;20035;-59
2020/12/19 01:16:18;;;;;;;52.33;10.07;;;;;;;1.32;80.26;94468.34;4967403;28;20082;-59
2020/12/19 01:18:44;;;;;;;39.40;9.43;;;;;;;1.24;79.98;94461.75;4968055;28;20038;-59
2020/12/19 01:21:14;;;;;;;59.20;9.52;;;;;;;1.11;80.49;94465.91;4968108;28;20034;-59
2020/12/19 01:23:39;;;;;;;62.45;11.02;;;;;;;1.10;80.69;94454.31;4968586;28;20447;-59
2020/12/19 01:26:05;;;;;;;49.75;11.25;;;;;;;1.06;81.20;94459.16;4982444;28;20077;-59
2020/12/19 01:28:31;;;;;;;74.93;11.50;;;;;;;1.04;81.10;94456.16;4967733;28;20488;-59
2020/12/19 01:30:56;;;;;;;46.35;11.43;;;;;;;1.11;81.47;94455.81;4968812;28;20118;-59
2020/12/19 01:33:21;;;;;;;52.15;12.35;;;;;;;1.23;81.27;94448.63;4968307;28;20403;-59
2020/12/19 01:35:47;;;;;;;60.20;18.15;;;;;;;1.29;81.47;94446.78;4968229;28;20027;-59
2020/12/19 01:38:12;;;;;;;69.78;18.45;;;;;;;1.28;80.23;94443.28;4967899;28;20093;-58
2020/12/19 01:40:38;;;;;;;49.33;15.98;;;;;;;1.33;80.35;94450.81;4967676;28;20046;-58
2020/12/19 01:43:04;;;;;;;65.85;17.88;;;;;;;1.29;80.68;94444.81;4968287;28;20067;-58
2020/12/19 01:45:29;;;;;;;69.63;18.30;;;;;;;1.26;80.53;94444.97;4982814;28;20369;-58
2020/12/19 01:47:56;;;;;;;98.57;15.02;;;;;;;1.25;80.76;94443.47;4967382;28;20058;-59
2020/12/19 01:50:22;;;;;;;43.53;11.77;;;;;;;1.28;80.21;94447.97;4967682;28;20058;-59
2020/12/19 01:52:47;;;;;;;27.23;9.95;;;;;;;1.26;79.31;94448.44;4968039;28;20097;-59
2020/12/19 01:55:13;;;;;;;44.13;11.18;;;;;;;1.25;79.62;94443.47;4967172;28;20053;-59
2020/12/19 01:57:40;;;;;;;46.00;11.98;;;;;;;1.24;80.26;94452.84;4967955;28;20100;-58
2020/12/19 02:00:06;;;;;;;41.53;14.85;;;;;;;1.31;80.06;94453.25;4967867;28;20045;-59
2020/12/19 02:02:31;;;;;;;62.60;10.60;;;;;;;1.23;80.02;94446.66;4967517;28;20046;-59
2020/12/19 02:04:57;;;;;;;56.10;9.00;;;;;;;1.15;80.23;94461.81;4967058;28;20026;-59
2020/12/19 02:07:23;;;;;;;41.78;8.48;;;;;;;1.20;79.75;94458.47;4968005;28;20050;-59
2020/12/19 02:09:49;;;;;;;34.58;7.80;;;;;;;1.23;79.30;94446.66;4966162;28;20031;-59
2020/12/19 02:12:15;;;;;;;21.13;7.18;;;;;;;1.08;79.21;94456.75;4967203;28;20066;-60
2020/12/19 02:14:40;;;;;;;62.17;9.10;;;;;;;0.89;79.69;94446.44;4967988;28;20098;-58
2020/12/19 02:17:06;;;;;;;41.00;9.73;;;;;;;1.04;79.73;94456.16;4966688;28;20059;-57
2020/12/19 02:19:32;;;;;;;32.22;8.88;;;;;;;1.13;79.72;94455.34;4967010;28;20472;-57
2020/12/19 02:21:58;;;;;;;43.05;9.50;;;;;;;1.08;79.60;94450.56;4967026;28;20031;-57
2020/12/19 02:24:24;;;;;;;26.38;7.07;;;;;;;0.93;79.80;94447.78;4965004;28;20403;-58
2020/12/19 02:26:52;;;;;;;74.60;9.02;;;;;;;0.86;79.88;94441.91;4965147;28;20039;-58
2020/12/19 02:29:17;;;;;;;31.30;7.68;;;;;;;0.71;80.83;94444.56;4966906;28;20120;-58
2020/12/19 02:31:43;;;;;;;38.13;8.88;;;;;;;0.69;79.96;94449.72;4967229;28;20043;-58
2020/12/19 02:34:09;;;;;;;48.50;8.90;;;;;;;0.48;80.48;94442.56;4966483;28;20046;-58
2020/12/19 02:36:36;;;;;;;37.63;8.20;;;;;;;0.41;80.71;94434.75;4967777;28;20038;-58
2020/12/19 02:39:02;;;;;;;38.90;8.25;;;;;;;0.34;81.35;94443.22;4966729;28;20035;-57
2020/12/19 02:41:27;;;;;;;27.10;8.55;;;;;;;0.49;81.21;94438.63;4966501;28;20133;-59
2020/12/19 02:43:54;;;;;;;33.85;8.63;;;;;;;0.42;81.37;94438.97;4967819;28;20523;-58
2020/12/19 02:46:20;;;;;;;40.22;9.10;;;;;;;0.39;81.37;94440.63;4965061;28;20386;-58
2020/12/19 02:48:45;;;;;;;32.75;8.07;;;;;;;0.38;81.31;94441.09;4965858;28;20042;-58
2020/12/19 02:51:11;;;;;;;34.92;9.23;;;;;;;0.58;80.76;94442.06;4966720;28;20031;-58
2020/12/19 02:53:36;;;;;;;35.47;8.85;;;;;;;0.66;81.36;94437.03;4966656;28;20046;-58
2020/12/19 02:56:01;;;;;;;26.48;9.07;;;;;;;0.73;81.22;94444.84;4966680;28;20046;-59
2020/12/19 02:58:27;;;;;;;28.30;9.93;;;;;;;0.61;81.79;94432.22;4965289;28;20038;-58
2020/12/19 03:00:52;;;;;;;49.85;9.50;;;;;;;0.59;81.57;94435.41;4967318;28;21119;-58
2020/12/19 03:03:17;;;;;;;23.42;7.95;;;;;;;0.69;80.85;94436.13;4966421;28;20023;-58
2020/12/19 03:05:43;;;;;;;31.73;10.38;;;;;;;0.62;81.41;94428.31;4967130;28;20053;-58
2020/12/19 03:08:08;;;;;;;30.23;9.40;;;;;;;0.74;81.40;94438.19;4966040;28;20034;-57
2020/12/19 03:10:34;;;;;;;57.72;8.95;;;;;;;0.88;80.71;94437.53;4966322;28;20118;-59
2020/12/19 03:12:59;;;;;;;32.15;9.82;;;;;;;0.85;80.10;94446.59;4966533;28;20101;-59
2020/12/19 03:15:24;;;;;;;48.60;10.88;;;;;;;0.76;79.97;94443.91;4966516;28;20034;-58
2020/12/19 03:17:50;;;;;;;60.40;10.00;;;;;;;0.72;80.34;94446.81;4966010;28;20062;-59
2020/12/19 03:20:15;;;;;;;34.58;9.15;;;;;;;0.75;80.83;94451.34;4966097;28;20058;-59
2020/12/19 03:22:40;;;;;;;31.95;9.05;;;;;;;0.79;80.63;94451.16;4965693;28;20073;-59
2020/12/19 03:25:07;;;;;;;31.35;9.52;;;;;;;0.83;80.63;94449.03;4965928;28;20034;-59
2020/12/19 03:27:32;;;;;;;27.27;8.25;;;;;;;0.75;80.58;94445.16;4964674;28;20081;-59
2020/12/19 03:29:57;;;;;;;58.60;8.48;;;;;;;0.83;80.68;94449.03;4965128;28;20030;-59
2020/12/19 03:32:23;;;;;;;30.85;8.15;;;;;;;0.87;79.21;94446.88;4965069;28;20506;-58
2020/12/19 03:34:48;;;;;;;32.30;8.38;;;;;;;0.92;78.89;94446.25;4965606;28;20035;-58
2020/12/19 03:37:14;;;;;;;36.38;9.38;;;;;;;0.77;79.55;94451.63;4965561;28;20035;-58
2020/12/19 03:39:39;;;;;;;35.28;7.32;;;;;;;0.63;78.38;94440.66;4965498;28;20035;-58
2020/12/19 03:42:05;;;;;;;40.95;9.57;;;;;;;0.40;79.02;94442.16;4965523;28;20542;-58
2020/12/19 03:44:30;;;;;;;62.53;10.13;;;;;;;0.29;79.51;94444.59;4966405;28;20039;-58
2020/12/19 03:46:55;;;;;;;26.45;9.65;;;;;;;0.30;80.54;94453.50;4965452;28;20559;-58
2020/12/19 03:49:21;;;;;;;30.25;9.00;;;;;;;0.41;80.81;94451.78;4965249;28;20038;-56
2020/12/19 03:51:46;;;;;;;42.90;9.65;;;;;;;0.52;80.83;94445.88;4965519;28;20411;-58
2020/12/19 03:54:11;;;;;;;19.63;7.93;;;;;;;0.57;80.55;94445.22;4964646;28;20130;-58
2020/12/19 03:56:37;;;;;;;37.03;8.43;;;;;;;0.37;81.12;94447.75;4965242;28;20030;-59
2020/12/19 03:59:02;;;;;;;23.15;8.18;;;;;;;0.52;80.55;94456.75;4965444;28;20042;-58
2020/12/19 04:01:28;;;;;;;30.40;7.45;;;;;;;0.65;80.76;94449.88;4965500;28;20038;-59
2020/12/19 04:03:53;;;;;;;38.70;7.78;;;;;;;0.65;80.11;94452.59;4966191;28;20046;-59
2020/12/19 04:06:18;;;;;;;88.65;8.75;;;;;;;0.54;78.19;94446.91;4966116;28;20798;-59
2020/12/19 04:08:44;;;;;;;66.00;9.30;;;;;;;0.50;77.33;94459.91;4964069;28;20026;-59
2020/12/19 04:11:09;;;;;;;41.55;8.13;;;;;;;0.50;77.25;94456.41;4965467;28;20027;-59
2020/12/19 04:13:35;;;;;;;19.63;8.23;;;;;;;0.38;78.77;94451.97;4965259;28;20087;-59
2020/12/19 04:16:00;;;;;;;43.88;7.45;;;;;;;0.44;77.95;94450.88;4965431;28;20492;-59
2020/12/19 04:18:26;;;;;;;22.13;7.15;;;;;;;0.39;78.17;94454.22;4965388;28;20033;-59
2020/12/19 04:20:51;;;;;;;35.47;7.38;;;;;;;0.19;78.17;94462.13;4964549;28;20030;-59
2020/12/19 04:23:17;;;;;;;18.40;7.43;;;;;;;-0.04;79.25;94447.25;4964505;28;20403;-59
2020/12/19 04:25:42;;;;;;;51.75;8.20;;;;;;;0.08;79.83;94456.44;4965272;28;20038;-59
2020/12/19 04:28:07;;;;;;;35.17;8.48;;;;;;;0.13;79.42;94455.06;4965117;28;20124;-59
2020/12/19 04:30:33;;;;;;;51.53;8.50;;;;;;;0.17;79.36;94461.09;4965527;28;20042;-59
2020/12/19 04:32:58;;;;;;;51.50;12.60;;;;;;;0.18;79.66;94460.63;4964885;28;21462;-59
2020/12/19 04:35:24;;;;;;;31.52;9.65;;;;;;;0.18;80.08;94454.44;4965535;28;20093;-59
2020/12/19 04:37:49;;;;;;;39.35;8.13;;;;;;;0.28;80.00;94455.94;4964928;28;20041;-59
2020/12/19 04:40:15;;;;;;;26.92;8.18;;;;;;;0.16;79.79;94456.84;4964529;28;20049;-59
2020/12/19 04:42:41;;;;;;;33.72;7.40;;;;;;;0.23;79.34;94459.25;4964957;28;20023;-59
2020/12/19 04:45:06;;;;;;;30.35;8.52;;;;;;;0.30;79.64;94462.41;4965258;28;20037;-59
2020/12/19 04:47:32;;;;;;;47.22;9.32;;;;;;;0.25;79.28;94463.03;4964673;28;20121;-59
2020/12/19 04:49:59;;;;;;;45.75;8.70;;;;;;;0.10;80.02;94454.00;4965992;28;20511;-59
2020/12/19 04:52:24;;;;;;;77.57;10.70;;;;;;;0.23;80.43;94470.13;4967611;28;20057;-59
2020/12/19 04:54:50;;;;;;;66.40;26.17;;;;;;;0.25;79.54;94468.44;4968606;28;20035;-59
2020/12/19 04:57:20;;;;;;;50.47;19.67;;;;;;;0.10;79.58;94464.13;4968609;28;20523;-59
2020/12/19 04:59:46;;;;;;;24.35;8.10;;;;;;;0.18;79.39;94466.06;4966823;28;20033;-59
2020/12/19 05:02:12;;;;;;;33.97;12.35;;;;;;;0.35;79.20;94472.63;4967386;28;20038;-59
2020/12/19 05:04:38;;;;;;;23.73;9.48;;;;;;;0.38;78.80;94463.59;4967795;28;20038;-59
2020/12/19 05:07:07;;;;;;;50.85;11.25;;;;;;;0.36;78.59;94463.28;4966714;28;20050;-60
2020/12/19 05:09:37;;;;;;;75.35;11.32;;;;;;;0.15;79.04;94456.13;4966628;28;20113;-59
2020/12/19 05:12:02;;;;;;;30.55;9.82;;;;;;;0.17;79.11;94459.13;4967042;28;20489;-59
2020/12/19 05:14:32;;;;;;;74.05;17.25;;;;;;;0.21;79.02;94464.38;4968143;28;20119;-59
2020/12/19 05:17:01;;;;;;;33.63;13.32;;;;;;;0.21;79.28;94467.09;4967315;28;20038;-59
2020/12/19 05:19:27;;;;;;;25.73;11.60;;;;;;;0.26;78.80;94472.66;4966136;28;20433;-59
2020/12/19 05:21:54;;;;;;;28.95;10.00;;;;;;;0.27;79.05;94485.03;4967467;28;20081;-59
2020/12/19 05:24:27;;;;;;;30.85;10.23;;;;;;;0.24;79.09;94477.06;4965645;28;20022;-59
2020/12/19 05:26:52;;;;;;;52.80;14.02;;;;;;;0.28;78.79;94489.25;4967191;28;20030;-59
2020/12/19 05:29:18;;;;;;;43.00;12.35;;;;;;;0.35;77.39;94482.75;4968527;28;20034;-59
2020/12/19 05:31:49;;;;;;;92.05;16.27;;;;;;;0.18;77.90;94484.31;4967089;28;20038;-59
2020/12/19 05:34:15;;;;;;;79.78;14.23;;;;;;;0.22;77.64;94491.09;4968195;28;20035;-59
2020/12/19 05:36:41;;;;;;;52.17;12.13;;;;;;;0.17;78.26;94485.53;4966798;28;20545;-59
2020/12/19 05:39:07;;;;;;;43.00;11.35;;;;;;;0.08;77.84;94482.81;4967722;28;20069;-59
2020/12/19 05:41:35;;;;;;;41.10;10.00;;;;;;;-0.17;78.01;94486.63;4968201;28;20097;-59
2020/12/19 05:44:01;;;;;;;55.47;11.05;;;;;;;-0.34;78.75;94488.16;4967118;28;20067;-59
2020/12/19 05:46:31;;;;;;;78.30;11.75;;;;;;;-0.47;79.33;94491.03;4968426;28;20490;-59
2020/12/19 05:48:58;;;;;;;81.63;10.40;;;;;;;-1.05;80.50;94490.38;4967583;28;20019;-59
2020/12/19 05:51:28;;;;;;;46.58;10.52;;;;;;;-0.78;80.86;94495.84;4967405;28;20167;-59
2020/12/19 05:54:02;;;;;;;33.65;10.68;;;;;;;-0.62;80.79;94498.25;4967133;28;20034;-59
2020/12/19 05:56:28;;;;;;;63.15;10.15;;;;;;;-0.56;80.71;94499.16;4967613;28;20049;-59
2020/12/19 05:58:54;;;;;;;46.15;8.43;;;;;;;-0.46;80.54;94497.22;4966874;28;20034;-59
2020/12/19 06:01:20;;;;;;;77.43;10.02;;;;;;;-0.40;79.43;94498.88;4967620;28;20042;-59
2020/12/19 06:03:48;;;;;;;51.42;9.35;;;;;;;-0.34;79.06;94496.28;4967900;28;20407;-59
2020/12/19 06:06:14;;;;;;;76.95;9.77;;;;;;;-0.63;78.94;94499.47;4967352;28;20038;-59
2020/12/19 06:08:40;;;;;;;84.97;17.42;;;;;;;-0.44;79.53;94506.41;4966299;28;20380;-59
2020/12/19 06:11:10;;;;;;;59.17;15.07;;;;;;;-0.42;79.75;94498.56;4967650;28;20030;-58
2020/12/19 06:13:37;;;;;;;48.90;12.40;;;;;;;-0.48;79.30;94518.63;4966199;28;20023;-58
2020/12/19 06:16:10;;;;;;;52.78;10.45;;;;;;;-0.68;78.68;94519.03;4966816;28;20058;-58
2020/12/19 06:18:48;;;;;;;40.10;9.27;;;;;;;-0.74;79.26;94511.97;4967552;28;20030;-59
2020/12/19 06:21:14;;;;;;;30.92;10.30;;;;;;;-0.57;79.51;94508.50;4964985;28;20026;-59
2020/12/19 06:23:40;;;;;;;35.08;8.50;;;;;;;-0.72;79.45;94517.69;4961963;28;20026;-59
2020/12/19 06:26:07;;;;;;;54.47;11.02;;;;;;;-0.96;80.36;94512.84;4961973;28;20065;-59
2020/12/19 06:28:42;;;;;;;32.00;11.65;;;;;;;-0.79;79.95;94514.06;4962533;28;20063;-59
2020/12/19 06:31:12;;;;;;;36.20;11.05;;;;;;;-0.82;79.65;94525.03;4966713;28;20570;-59
2020/12/19 06:33:40;;;;;;;41.13;11.43;;;;;;;-0.63;78.82;94520.41;4967055;28;20450;-59
2020/12/19 06:36:20;;;;;;;27.23;10.43;;;;;;;-0.58;79.20;94523.25;4966982;28;20031;-59
2020/12/19 06:38:56;;;;;;;23.05;8.68;;;;;;;-0.47;78.69;94526.28;4964929;28;20105;-59
2020/12/19 06:41:41;;;;;;;53.30;8.95;;;;;;;-0.91;79.07;94530.47;4961373;28;20086;-59
2020/12/19 06:44:10;;;;;;;34.53;11.35;;;;;;;-0.78;78.83;94529.13;4961648;28;20467;-59
2020/12/19 06:46:36;;;;;;;38.50;14.18;;;;;;;-0.76;79.21;94529.41;4961267;28;20062;-59
2020/12/19 06:49:35;;;;;;;29.15;9.48;;;;;;;-0.66;79.19;94532.16;4965576;28;20050;-59
2020/12/19 06:52:03;;;;;;;30.90;7.65;;;;;;;-0.57;78.73;94526.75;4953677;28;20081;-59
2020/12/19 06:54:29;;;;;;;43.63;9.10;;;;;;;-0.44;78.21;94530.81;4965905;28;20129;-58
2020/12/19 06:56:55;;;;;;;32.67;7.63;;;;;;;-0.25;77.70;94526.91;4965886;28;20282;-58
2020/12/19 06:59:25;;;;;;;18.33;7.95;;;;;;;-0.08;76.72;94532.75;4965023;28;20036;-58
2020/12/19 07:01:50;;;;;;;35.40;10.75;;;;;;;-0.04;77.73;94534.13;4965229;28;20073;-59
2020/12/19 07:04:32;;;;;;;23.52;9.25;;;;;;;-0.08;77.55;94519.94;4965440;28;20058;-58
2020/12/19 07:07:02;;;;;;;36.33;11.48;;;;;;;-0.06;77.35;94538.50;4965903;28;20463;-59
2020/12/19 07:09:29;;;;;;;27.08;8.77;;;;;;;0.13;78.11;94536.53;4964745;28;20046;-59
2020/12/19 07:11:54;;;;;;;37.30;16.20;;;;;;;0.29;76.36;94544.31;4964961;28;20030;-59
2020/12/19 07:14:20;;;;;;;77.57;27.30;;;;;;;0.37;76.62;94534.66;4966134;28;20039;-59
2020/12/19 07:16:47;;;;;;;38.35;14.57;;;;;;;0.38;76.10;94538.88;4964969;28;20565;-59
2020/12/19 07:19:24;;;;;;;29.20;14.10;;;;;;;0.65;75.42;94541.53;4964393;28;20033;-59
2020/12/19 07:21:50;;;;;;;25.58;10.52;;;;;;;0.89;73.79;94530.72;4964692;28;20027;-59
2020/12/19 07:24:15;;;;;;;25.45;8.50;;;;;;;1.01;73.16;94533.22;4964392;28;20027;-59
2020/12/19 07:26:41;;;;;;;21.17;7.57;;;;;;;1.02;72.90;94531.25;4965365;28;20038;-58
2020/12/19 07:29:18;;;;;;;18.55;8.25;;;;;;;1.10;72.17;94524.25;4964748;28;20124;-59
2020/12/19 07:31:46;;;;;;;19.42;8.63;;;;;;;1.22;72.69;94532.19;4965038;28;20033;-59
2020/12/19 07:34:11;;;;;;;25.92;11.82;;;;;;;1.28;72.04;94527.63;4964927;28;20035;-59
2020/12/19 07:36:43;;;;;;;26.17;12.30;;;;;;;1.48;72.04;94532.50;4965204;28;20381;-59
2020/12/19 07:39:09;;;;;;;24.50;11.60;;;;;;;1.44;70.89;94532.66;4965020;28;20034;-60
2020/12/19 07:41:35;;;;;;;25.67;12.93;;;;;;;1.55;70.49;94537.59;4965049;28;20042;-60
2020/12/19 07:44:11;;;;;;;25.70;12.13;;;;;;;1.72;69.75;94537.91;4964036;28;20054;-59
2020/12/19 07:46:48;;;;;;;32.10;11.45;;;;;;;1.78;69.54;94522.44;4965572;28;20126;-59
2020/12/19 07:49:32;;;;;;;27.10;11.55;;;;;;;2.16;68.84;94530.59;4963386;28;20029;-60
2020/12/19 07:52:15;;;;;;;23.40;10.13;;;;;;;2.59;68.75;94535.31;4961783;28;20039;-60
2020/12/19 07:54:42;;;;;;;35.55;18.15;;;;;;;3.07;66.71;94531.09;4962922;28;20042;-60
2020/12/19 07:57:07;;;;;;;27.55;13.88;;;;;;;3.51;65.78;94532.97;4962809;28;20423;-60
2020/12/19 07:59:39;;;;;;;24.85;13.50;;;;;;;3.86;64.77;94528.16;4963314;28;20027;-60
2020/12/19 08:02:05;;;;;;;33.80;16.40;;;;;;;4.20;63.26;94519.09;4965575;28;20053;-60
2020/12/19 08:04:31;;;;;;;27.20;14.93;;;;;;;4.63;62.22;94522.00;4965523;28;20047;-60
2020/12/19 08:06:58;;;;;;;20.30;11.98;;;;;;;5.28;61.11;94526.50;4963946;28;20062;-60
2020/12/19 08:09:23;;;;;;;24.73;15.40;;;;;;;6.02;59.09;94522.38;4965438;28;20038;-60
2020/12/19 08:11:51;;;;;;;28.55;18.08;;;;;;;6.83;56.96;94522.31;4965338;28;20033;-60
2020/12/19 08:14:21;;;;;;;38.85;19.85;;;;;;;7.32;53.80;94523.53;4962884;28;20054;-60
2020/12/19 08:16:48;;;;;;;40.30;20.75;;;;;;;7.75;53.17;94521.22;4960183;28;20045;-60
2020/12/19 08:19:38;;;;;;;40.03;20.13;;;;;;;8.33;50.64;94517.25;4960791;28;20430;-60
2020/12/19 08:22:05;;;;;;;45.17;24.00;;;;;;;8.81;50.43;94518.72;4954199;28;20105;-60
2020/12/19 08:24:31;;;;;;;39.03;25.38;;;;;;;9.29;50.37;94515.31;4959696;28;20084;-60
2020/12/19 08:27:35;;;;;;;48.22;22.92;;;;;;;9.83;49.12;94525.03;4960230;28;20510;-60
2020/12/19 08:30:18;;;;;;;42.53;23.95;;;;;;;9.79;48.46;94523.84;4960391;28;20033;-59
2020/12/19 08:32:59;;;;;;;79.43;37.60;;;;;;;9.44;49.41;94529.47;4960768;28;20176;-60
2020/12/19 08:35:34;;;;;;;144.93;54.47;;;;;;;9.04;50.04;94531.03;4958621;28;20038;-60
2020/12/19 08:38:23;;;;;;;96.07;41.42;;;;;;;8.68;51.27;94527.56;4959196;28;20044;-60
2020/12/19 08:40:55;;;;;;;40.80;22.30;;;;;;;8.32;52.52;94529.50;4960822;28;20395;-60
2020/12/19 08:43:21;;;;;;;43.80;21.63;;;;;;;7.92;53.66;94527.41;4960685;28;20039;-60
2020/12/19 08:45:48;;;;;;;40.08;21.63;;;;;;;7.49;55.47;94526.28;4976094;28;20046;-60
2020/12/19 08:48:20;;;;;;;32.03;18.50;;;;;;;7.49;55.81;94516.00;4960657;28;20411;-60
2020/12/19 08:50:46;;;;;;;40.28;20.63;;;;;;;7.39;55.83;94520.28;4961779;28;20027;-60
2020/12/19 08:53:21;;;;;;;57.42;29.65;;;;;;;7.33;56.46;94516.03;4961245;28;20515;-60
2020/12/19 08:55:48;;;;;;;40.85;21.55;;;;;;;7.15;57.11;94511.81;4961342;28;20027;-60
2020/12/19 08:58:27;;;;;;;38.63;20.33;;;;;;;7.10;57.93;94509.09;4961855;28;20781;-59
2020/12/19 09:00:54;;;;;;;37.40;19.40;;;;;;;7.19;58.27;94506.09;4961992;28;20034;-59
2020/12/19 09:03:27;;;;;;;44.95;23.58;;;;;;;7.13;57.46;94506.06;4961618;28;20081;-59
2020/12/19 09:06:03;;;;;;;47.03;22.73;;;;;;;7.10;57.53;94500.84;4961564;28;20023;-60
2020/12/19 09:08:42;;;;;;;42.13;21.80;;;;;;;7.22;57.75;94505.81;4961383;28;20117;-60
2020/12/19 09:11:20;;;;;;;46.78;22.48;;;;;;;7.43;58.02;94500.78;4959613;28;20022;-60
2020/12/19 09:13:46;;;;;;;56.47;26.73;;;;;;;7.48;58.36;94495.28;4961775;28;20026;-59
2020/12/19 09:16:12;;;;;;;53.25;23.38;;;;;;;7.40;59.10;94486.06;4965340;28;20550;-59
2020/12/19 09:18:38;;;;;;;57.33;25.45;;;;;;;7.32;58.88;94479.56;4961725;28;20031;-59
2020/12/19 09:21:08;;;;;;;85.75;34.35;;;;;;;7.18;59.19;94488.84;4961153;28;20385;-59
2020/12/19 09:23:33;;;;;;;76.22;33.25;;;;;;;7.43;59.45;94482.31;4965109;28;20027;-59
2020/12/19 09:26:01;;;;;;;51.92;23.85;;;;;;;7.56;60.12;94482.53;4961789;28;20027;-59
2020/12/19 09:28:27;;;;;;;71.47;31.83;;;;;;;7.92;59.87;94475.16;4965301;28;20065;-59
2020/12/19 09:30:54;;;;;;;63.17;26.55;;;;;;;8.00;58.49;94473.38;4962309;28;20034;-59
2020/12/19 09:33:20;;;;;;;51.92;22.88;;;;;;;8.07;58.87;94463.84;4961711;28;20035;-59
2020/12/19 09:35:47;;;;;;;55.28;25.42;;;;;;;8.16;59.55;94477.28;4960449;28;20113;-59
2020/12/19 09:38:13;;;;;;;43.85;20.33;;;;;;;8.15;59.20;94476.53;4964782;28;20034;-60
2020/12/19 09:40:39;;;;;;;37.58;20.00;;;;;;;8.43;58.91;94478.41;4963303;28;20411;-59
2020/12/19 09:43:05;;;;;;;32.92;18.10;;;;;;;8.66;57.61;94463.25;4964320;28;20045;-60
2020/12/19 09:45:31;;;;;;;36.13;20.13;;;;;;;8.86;58.19;94469.09;4967483;28;20030;-60
2020/12/19 09:47:58;;;;;;;35.50;20.63;;;;;;;9.08;57.68;94465.41;4964433;28;20037;-59
2020/12/19 09:50:25;;;;;;;28.83;17.77;;;;;;;9.27;57.29;94468.97;4964349;28;20035;-59
2020/12/19 09:52:51;;;;;;;21.17;13.27;;;;;;;9.66;56.55;94460.28;4958764;28;20974;-59
2020/12/19 09:55:17;;;;;;;9.60;6.68;;;;;;;10.42;55.06;94452.34;4956916;28;20041;-59
2020/12/19 10:29:06;;;;;;;6.32;5.13;;;;;;;17.43;37.14;94412.47;5091202;27;20359;-59
2020/12/19 10:31:32;;;;;;;6.05;5.43;;;;;;;17.03;37.08;94412.56;5086885;28;20043;-59
2020/12/19 10:33:58;;;;;;;11.15;7.57;;;;;;;16.36;39.01;94408.81;5097580;28;20038;-60
2020/12/19 10:36:23;;;;;;;11.65;6.60;;;;;;;16.00;39.91;94402.81;5098988;28;20023;-59
2020/12/19 10:38:49;;;;;;;8.88;6.55;;;;;;;15.94;38.33;94397.44;5091112;27;20421;-61
2020/12/19 10:41:15;;;;;;;8.88;6.82;;;;;;;15.93;39.12;94404.31;5082456;28;20127;-61
2020/12/19 10:43:42;;;;;;;8.18;7.05;;;;;;;16.02;38.59;94411.34;5098358;27;20108;-61
2020/12/19 10:46:13;;;;;;;11.18;7.53;;;;;;;16.20;38.61;94396.22;5102001;27;20795;-63
2020/12/19 10:48:39;;;;;;;8.18;5.80;;;;;;;16.16;39.00;94397.91;5095772;27;20454;-64
2020/12/19 10:51:06;;;;;;;9.77;7.18;;;;;;;16.53;38.05;94385.91;5099631;28;20031;-64
2020/12/19 10:53:39;;;;;;;8.48;6.47;;;;;;;15.99;40.00;94395.00;5088102;28;20043;-60
2020/12/19 10:56:05;;;;;;;6.60;4.65;;;;;;;16.09;38.01;94390.34;5096246;28;20763;-61
2020/12/19 10:58:34;;;;;;;5.38;4.20;;;;;;;15.33;39.53;94392.50;5101553;27;20040;-61
2020/12/19 11:01:00;;;;;;;5.63;4.95;;;;;;;15.07;40.93;94393.63;5100435;28;20085;-62
2020/12/19 11:03:27;;;;;;;8.82;6.22;;;;;;;15.66;39.34;94383.75;5094899;28;20031;-62
2020/12/19 11:05:52;;;;;;;5.65;4.75;;;;;;;15.73;39.71;94379.47;5106807;28;20016;-63
2020/12/19 11:08:18;;;;;;;6.70;5.20;;;;;;;16.04;38.28;94380.16;5098510;28;20366;-62
2020/12/19 11:10:43;;;;;;;6.22;4.95;;;;;;;16.25;39.43;94383.41;5099977;27;20016;-62
2020/12/19 11:13:09;;;;;;;5.28;4.28;;;;;;;16.65;36.94;94384.91;5106318;28;20494;-62
2020/12/19 11:15:34;;;;;;;8.07;5.93;;;;;;;16.68;37.50;94375.41;5097056;28;20042;-63
2020/12/19 11:18:00;;;;;;;5.13;4.20;;;;;;;16.54;37.18;94374.19;5081710;28;20031;-62
2020/12/19 11:20:25;;;;;;;6.05;4.82;;;;;;;17.02;35.96;94369.22;5102159;27;20024;-62
2020/12/19 11:22:51;;;;;;;7.07;6.35;;;;;;;16.95;36.92;94372.81;5108543;27;20038;-62
2020/12/19 11:25:17;;;;;;;15.45;11.05;;;;;;;17.15;37.48;94368.94;5100269;28;20024;-63
2020/12/19 11:27:42;;;;;;;16.98;9.98;;;;;;;17.75;35.28;94362.13;5101372;27;20173;-61
2020/12/19 11:30:08;;;;;;;4.50;4.10;;;;;;;17.44;33.89;94356.06;5083854;27;20130;-60
2020/12/19 11:32:33;;;;;;;6.88;5.75;;;;;;;17.79;34.26;94358.91;5088302;28;20020;-61
2020/12/19 11:34:59;;;;;;;10.32;6.55;;;;;;;17.03;36.64;94356.75;5078465;28;20028;-61
2020/12/19 11:37:25;;;;;;;7.43;6.22;;;;;;;16.68;37.20;94352.34;5079492;28;20135;-61
2020/12/19 11:39:51;;;;;;;11.07;7.45;;;;;;;16.93;37.11;94350.34;5093586;28;20035;-61
2020/12/19 11:42:17;;;;;;;6.10;5.50;;;;;;;16.51;37.32;94355.06;5084346;28;20483;-61
2020/12/19 11:44:42;;;;;;;11.25;7.60;;;;;;;16.75;37.00;94348.03;5088969;28;20028;-61
2020/12/19 11:47:07;;;;;;;8.18;6.25;;;;;;;16.76;36.80;94347.50;5094170;28;20059;-61
2020/12/19 11:49:33;;;;;;;7.22;6.10;;;;;;;16.17;39.32;94347.22;5082472;28;20051;-61
2020/12/19 11:52:00;;;;;;;8.18;6.15;;;;;;;16.34;37.74;94352.91;5082445;28;20033;-61
2020/12/19 11:54:25;;;;;;;7.45;5.65;;;;;;;16.14;38.60;94339.97;5092611;28;20043;-61
2020/12/19 11:56:50;;;;;;;6.45;5.53;;;;;;;15.46;39.24;94345.78;5089484;28;20497;-65
2020/12/19 11:59:16;;;;;;;8.00;6.50;;;;;;;15.30;40.29;94349.84;5094897;28;20027;-64